createdAt,value
2022-09-13T00:00:44.047Z,4.68
2022-09-13T00:03:12.875Z,4.70
2022-09-13T00:05:40.538Z,5.00
2022-09-13T00:08:08.538Z,4.68
2022-09-13T00:10:38.666Z,4.20
2022-09-13T00:13:08.944Z,4.78
2022-09-13T00:15:36.773Z,4.45
2022-09-13T00:18:04.456Z,4.13
2022-09-13T00:20:31.906Z,4.13
2022-09-13T00:22:59.339Z,3.78
2022-09-13T00:25:27.837Z,4.63
2022-09-13T00:27:55.223Z,4.63
2022-09-13T00:30:24.155Z,4.72
2022-09-13T00:35:19.784Z,3.55
2022-09-13T00:37:51.307Z,4.00
2022-09-13T00:40:31.647Z,4.18
2022-09-13T00:43:01.877Z,4.40
2022-09-13T00:45:30.615Z,3.67
2022-09-13T00:48:01.824Z,3.88
2022-09-13T00:50:32.268Z,3.55
2022-09-13T00:53:07.182Z,3.50
2022-09-13T00:55:41.883Z,3.92
2022-09-13T00:58:13.403Z,3.78
2022-09-13T01:00:44.960Z,3.80
2022-09-13T01:03:15.214Z,3.67
2022-09-13T01:05:46.763Z,3.63
2022-09-13T01:08:20.582Z,4.55
2022-09-13T01:10:51.234Z,3.33
2022-09-13T01:13:23.087Z,3.70
2022-09-13T01:15:52.144Z,3.28
2022-09-13T01:18:20.138Z,3.53
2022-09-13T01:21:14.917Z,3.13
2022-09-13T01:24:07.038Z,4.03
2022-09-13T01:27:03.556Z,3.22
2022-09-13T01:29:52.653Z,3.35
2022-09-13T01:32:30.591Z,3.15
2022-09-13T01:35:07.483Z,3.55
2022-09-13T01:37:46.608Z,3.42
2022-09-13T01:40:24.662Z,3.63
2022-09-13T01:43:06.184Z,3.28
2022-09-13T01:45:42.998Z,3.10
2022-09-13T01:48:17.539Z,3.33
2022-09-13T01:50:51.188Z,3.35
2022-09-13T01:53:26.094Z,4.30
2022-09-13T01:55:59.376Z,3.63
2022-09-13T01:58:31.683Z,4.25
2022-09-13T02:01:07.404Z,3.88
2022-09-13T02:03:41.195Z,3.38
2022-09-13T02:06:15.259Z,3.80
2022-09-13T02:08:46.740Z,3.15
2022-09-13T02:11:17.342Z,3.45
2022-09-13T02:13:50.258Z,3.33
2022-09-13T02:16:25.383Z,3.15
2022-09-13T02:18:59.627Z,3.00
2022-09-13T02:21:31.083Z,3.00
2022-09-13T02:24:02.605Z,3.20
2022-09-13T02:26:31.973Z,3.42
2022-09-13T02:29:05.731Z,3.28
2022-09-13T02:31:37.301Z,2.78
2022-09-13T02:34:12.851Z,2.78
2022-09-13T02:36:43.750Z,2.70
2022-09-13T02:39:15.525Z,3.03
2022-09-13T02:41:51.366Z,3.10
2022-09-13T02:44:26.404Z,2.70
2022-09-13T02:47:10.753Z,3.10
2022-09-13T02:49:51.758Z,3.10
2022-09-13T02:52:26.390Z,3.53
2022-09-13T02:55:02.538Z,3.58
2022-09-13T02:57:38.625Z,3.55
2022-09-13T03:00:07.109Z,3.40
2022-09-13T03:02:35.213Z,3.10
2022-09-13T03:05:04.453Z,3.58
2022-09-13T03:07:32.010Z,2.95
2022-09-13T03:10:05.813Z,3.55
2022-09-13T03:12:51.050Z,2.60
2022-09-13T03:15:29.857Z,3.00
2022-09-13T03:18:12.860Z,3.00
2022-09-13T03:20:48.346Z,3.13
2022-09-13T03:23:45.969Z,2.80
2022-09-13T03:26:25.777Z,2.75
2022-09-13T03:31:32.832Z,2.88
2022-09-13T03:34:09.080Z,2.85
2022-09-13T03:36:44.873Z,2.55
2022-09-13T03:39:17.820Z,2.35
2022-09-13T03:41:53.327Z,2.75
2022-09-13T03:44:23.839Z,2.90
2022-09-13T03:46:57.586Z,2.80
2022-09-13T03:49:27.324Z,3.25
2022-09-13T03:54:27.053Z,2.95
2022-09-13T03:57:11.461Z,3.00
2022-09-13T03:59:41.832Z,3.05
2022-09-13T04:02:11.285Z,3.35
2022-09-13T04:04:39.559Z,3.83
2022-09-13T04:07:09.990Z,3.33
2022-09-13T04:09:37.811Z,3.30
2022-09-13T04:12:05.778Z,3.65
2022-09-13T04:14:33.677Z,2.80
2022-09-13T04:17:01.071Z,2.42
2022-09-13T04:19:29.866Z,3.42
2022-09-13T04:21:57.384Z,3.17
2022-09-13T04:24:28.132Z,2.63
2022-09-13T04:26:56.545Z,3.08
2022-09-13T04:29:26.912Z,2.95
2022-09-13T04:31:56.015Z,2.85
2022-09-13T04:34:25.067Z,3.10
2022-09-13T04:36:53.236Z,2.10
2022-09-13T04:39:20.984Z,2.40
2022-09-13T04:41:52.217Z,2.67
2022-09-13T04:44:20.906Z,2.10
2022-09-13T04:46:49.164Z,2.75
2022-09-13T04:49:17.664Z,2.97
2022-09-13T04:51:45.042Z,3.20
2022-09-13T04:54:16.209Z,2.40
2022-09-13T04:56:44.759Z,3.20
2022-09-13T04:59:14.343Z,3.40
2022-09-13T05:01:41.944Z,3.08
2022-09-13T05:04:10.565Z,3.72
2022-09-13T05:06:38.373Z,2.95
2022-09-13T05:09:06.091Z,2.78
2022-09-13T05:11:33.960Z,3.20
2022-09-13T05:14:02.097Z,2.92
2022-09-13T05:16:33.136Z,3.13
2022-09-13T05:19:00.987Z,3.28
2022-09-13T05:21:29.194Z,2.50
2022-09-13T05:23:57.564Z,2.03
2022-09-13T05:26:26.929Z,2.78
2022-09-13T05:28:54.176Z,2.45
2022-09-13T05:31:28.254Z,2.13
2022-09-13T05:33:58.971Z,2.85
2022-09-13T05:36:26.719Z,2.72
2022-09-13T05:39:12.122Z,3.20
2022-09-13T05:41:43.503Z,3.00
2022-09-13T05:44:13.450Z,2.90
2022-09-13T05:46:41.444Z,3.20
2022-09-13T05:49:12.787Z,2.80
2022-09-13T05:51:41.014Z,2.85
2022-09-13T05:54:11.199Z,3.03
2022-09-13T05:56:38.624Z,2.90
2022-09-13T05:59:06.027Z,3.22
2022-09-13T06:01:33.329Z,2.67
2022-09-13T06:04:00.823Z,3.50
2022-09-13T06:06:29.557Z,2.92
2022-09-13T06:08:58.078Z,2.58
2022-09-13T06:11:26.755Z,2.85
2022-09-13T06:13:54.276Z,3.30
2022-09-13T06:16:21.987Z,3.08
2022-09-13T06:18:50.251Z,2.83
2022-09-13T06:21:19.817Z,2.88
2022-09-13T06:23:51.125Z,2.42
2022-09-13T06:26:20.200Z,2.70
2022-09-13T06:28:49.593Z,2.63
2022-09-13T06:31:18.574Z,3.22
2022-09-13T06:33:46.371Z,2.97
2022-09-13T06:36:18.233Z,2.70
2022-09-13T06:38:46.927Z,2.55
2022-09-13T06:41:18.876Z,3.20
2022-09-13T06:43:48.127Z,3.35
2022-09-13T06:46:21.546Z,2.97
2022-09-13T06:48:52.811Z,2.83
2022-09-13T06:51:22.088Z,3.17
2022-09-13T06:53:50.439Z,3.03
2022-09-13T06:56:20.738Z,3.20
2022-09-13T06:58:50.103Z,3.78
2022-09-13T07:01:19.258Z,3.80
2022-09-13T07:03:48.699Z,2.78
2022-09-13T07:06:22.169Z,3.85
2022-09-13T07:08:51.784Z,3.13
2022-09-13T07:11:22.255Z,3.70
2022-09-13T07:13:51.707Z,2.88
2022-09-13T07:18:51.808Z,3.28
2022-09-13T07:21:19.483Z,4.10
2022-09-13T07:23:46.752Z,3.55
2022-09-13T07:26:15.078Z,3.30
2022-09-13T07:28:45.345Z,3.13
2022-09-13T07:31:14.618Z,3.70
2022-09-13T07:33:43.251Z,3.40
2022-09-13T07:36:12.745Z,4.07
2022-09-13T07:38:41.485Z,3.38
2022-09-13T07:41:12.675Z,3.63
2022-09-13T07:43:40.234Z,3.50
2022-09-13T07:46:14.927Z,3.70
2022-09-13T07:48:45.369Z,3.78
2022-09-13T07:51:15.134Z,4.05
2022-09-13T07:56:11.850Z,4.15
2022-09-13T07:58:42.863Z,4.22
2022-09-13T08:01:16.154Z,4.35
2022-09-13T08:03:44.233Z,3.85
2022-09-13T08:06:11.752Z,3.22
2022-09-13T08:08:39.028Z,3.33
2022-09-13T08:11:06.910Z,3.55
2022-09-13T08:13:34.696Z,4.15
2022-09-13T08:16:03.672Z,3.75
2022-09-13T08:18:32.621Z,3.17
2022-09-13T08:21:01.048Z,3.90
2022-09-13T08:23:28.800Z,3.70
2022-09-13T08:26:01.744Z,3.88
2022-09-13T08:28:29.512Z,3.03
2022-09-13T08:33:32.518Z,3.90
2022-09-13T08:35:59.976Z,3.35
2022-09-13T08:38:27.261Z,4.07
2022-09-13T08:40:57.370Z,3.22
2022-09-13T08:43:41.415Z,3.53
2022-09-13T08:46:18.759Z,3.55
2022-09-13T08:48:50.469Z,3.63
2022-09-13T08:51:29.425Z,3.75
2022-09-13T08:53:58.266Z,3.72
2022-09-13T08:56:32.262Z,3.47
2022-09-13T08:59:16.886Z,3.30
2022-09-13T09:01:54.037Z,3.97
2022-09-13T09:04:34.922Z,3.67
2022-09-13T09:07:09.820Z,3.50
2022-09-13T09:09:44.746Z,3.53
2022-09-13T09:12:18.765Z,3.45
2022-09-13T09:14:51.434Z,3.50
2022-09-13T09:17:22.845Z,3.15
2022-09-13T09:19:56.164Z,3.83
2022-09-13T09:22:31.961Z,3.80
2022-09-13T09:25:00.006Z,2.78
2022-09-13T09:27:30.698Z,3.30
2022-09-13T09:29:58.630Z,3.10
2022-09-13T09:32:47.704Z,2.42
2022-09-13T09:35:29.671Z,2.83
2022-09-13T09:38:15.021Z,2.63
2022-09-13T09:40:42.380Z,3.72
2022-09-13T09:43:17.966Z,2.95
2022-09-13T09:45:47.014Z,2.67
2022-09-13T09:48:19.543Z,2.97
2022-09-13T09:50:53.193Z,2.47
2022-09-13T09:53:27.112Z,3.17
2022-09-13T09:56:00.575Z,3.10
2022-09-13T09:58:39.602Z,3.28
2022-09-13T10:01:18.772Z,3.08
2022-09-13T10:03:51.860Z,3.30
2022-09-13T10:06:23.415Z,3.10
2022-09-13T10:08:58.627Z,3.13
2022-09-13T10:11:39.304Z,3.20
2022-09-13T10:14:08.087Z,3.20
2022-09-13T10:16:35.679Z,3.28
2022-09-13T10:19:29.978Z,3.00
2022-09-13T10:22:03.094Z,2.88
2022-09-13T10:24:30.713Z,2.67
2022-09-13T10:26:59.675Z,3.03
2022-09-13T10:29:28.670Z,3.40
2022-09-13T10:31:58.607Z,2.83
2022-09-13T10:34:30.123Z,2.25
2022-09-13T10:37:03.283Z,2.75
2022-09-13T10:39:33.043Z,2.50
2022-09-13T10:42:02.826Z,2.25
2022-09-13T10:44:38.191Z,2.13
2022-09-13T10:47:11.375Z,1.63
2022-09-13T10:49:42.874Z,2.10
2022-09-13T10:52:31.101Z,2.30
2022-09-13T10:55:28.640Z,2.22
2022-09-13T10:58:13.832Z,1.83
2022-09-13T11:00:51.157Z,1.50
2022-09-13T11:03:33.913Z,1.65
2022-09-13T11:06:07.378Z,2.00
2022-09-13T11:08:50.616Z,2.58
2022-09-13T11:11:27.036Z,1.73
2022-09-13T11:14:04.591Z,1.77
2022-09-13T11:16:48.630Z,1.30
2022-09-13T11:19:56.789Z,1.92
2022-09-13T11:22:56.350Z,1.23
2022-09-13T11:25:44.653Z,1.30
2022-09-13T11:28:21.413Z,1.63
2022-09-13T11:31:18.361Z,1.77
2022-09-13T11:33:58.608Z,1.33
2022-09-13T11:36:43.074Z,1.25
2022-09-13T11:39:23.925Z,1.20
2022-09-13T11:42:05.327Z,1.60
2022-09-13T11:44:57.437Z,1.40
2022-09-13T11:47:38.276Z,1.70
2022-09-13T11:50:23.479Z,1.58
2022-09-13T11:53:05.051Z,1.38
2022-09-13T11:55:38.547Z,1.80
2022-09-13T11:58:13.694Z,1.60
2022-09-13T12:00:45.652Z,1.55
2022-09-13T12:03:21.984Z,1.30
2022-09-13T12:05:54.396Z,1.92
2022-09-13T12:08:27.033Z,1.50
2022-09-13T12:10:57.606Z,1.40
2022-09-13T12:13:31.641Z,1.40
2022-09-13T12:16:03.513Z,1.60
2022-09-13T12:18:35.673Z,1.77
2022-09-13T12:21:07.888Z,1.60
2022-09-13T12:23:39.102Z,1.48
2022-09-13T12:26:13.428Z,2.13
2022-09-13T12:28:46.186Z,1.80
2022-09-13T12:31:17.572Z,1.75
2022-09-13T12:33:46.067Z,2.00
2022-09-13T12:36:40.482Z,1.80
2022-09-13T12:39:34.394Z,1.45
2022-09-13T12:42:35.547Z,1.30
2022-09-13T12:45:17.130Z,1.83
2022-09-13T12:48:03.250Z,1.20
2022-09-13T12:50:44.813Z,1.48
2022-09-13T12:53:29.363Z,1.20
2022-09-13T12:56:29.866Z,1.40
2022-09-13T12:59:35.824Z,1.08
2022-09-13T13:02:26.793Z,1.23
2022-09-13T13:04:59.445Z,1.05
2022-09-13T13:07:28.441Z,1.35
2022-09-13T13:09:57.270Z,1.55
2022-09-13T13:12:29.687Z,1.35
2022-09-13T13:14:58.335Z,1.40
2022-09-13T13:17:42.864Z,1.35
2022-09-13T13:20:44.174Z,1.02
2022-09-13T13:23:23.513Z,1.48
2022-09-13T13:29:04.867Z,1.08
2022-09-13T13:31:38.377Z,1.02
2022-09-13T13:34:33.957Z,1.30
2022-09-13T13:37:04.771Z,1.40
2022-09-13T13:39:40.722Z,1.48
2022-09-13T13:42:23.051Z,1.30
2022-09-13T13:45:07.771Z,1.33
2022-09-13T13:47:55.302Z,1.35
2022-09-13T13:50:24.144Z,1.08
2022-09-13T13:52:55.508Z,1.45
2022-09-13T13:55:42.357Z,1.25
2022-09-13T13:58:27.287Z,1.65
2022-09-13T14:00:58.831Z,1.98
2022-09-13T14:03:36.044Z,1.60
2022-09-13T14:06:13.930Z,2.35
2022-09-13T14:08:52.987Z,1.48
2022-09-13T14:11:33.545Z,1.80
2022-09-13T14:14:16.113Z,1.52
2022-09-13T14:16:55.284Z,1.35
2022-09-13T14:19:30.361Z,1.38
2022-09-13T14:22:18.511Z,1.63
2022-09-13T14:24:50.217Z,1.20
2022-09-13T14:27:26.018Z,1.80
2022-09-13T14:29:58.129Z,1.50
2022-09-13T14:32:33.203Z,1.52
2022-09-13T14:35:06.936Z,1.55
2022-09-13T14:37:38.248Z,1.40
2022-09-13T14:40:18.129Z,1.30
2022-09-13T14:42:47.348Z,1.48
2022-09-13T14:45:17.308Z,1.42
2022-09-13T14:47:52.117Z,1.60
2022-09-13T14:50:24.040Z,1.92
2022-09-13T14:52:56.613Z,1.63
2022-09-13T14:55:28.273Z,1.30
2022-09-13T14:58:00.041Z,1.52
2022-09-13T15:00:28.056Z,1.85
2022-09-13T15:02:59.742Z,1.60
2022-09-13T15:05:29.755Z,1.58
2022-09-13T15:07:59.128Z,1.58
2022-09-13T15:10:30.058Z,1.50
2022-09-13T15:13:08.297Z,1.50
2022-09-13T15:15:37.866Z,1.20
2022-09-13T15:20:48.258Z,2.00
2022-09-13T15:23:19.383Z,1.92
2022-09-13T15:25:53.702Z,1.63
2022-09-13T15:28:24.081Z,1.48
2022-09-13T15:30:52.154Z,1.60
2022-09-13T15:33:30.714Z,1.67
2022-09-13T15:36:15.535Z,1.63
2022-09-13T15:39:17.045Z,2.67
2022-09-13T15:41:53.078Z,1.63
2022-09-13T15:44:20.827Z,1.75
2022-09-13T15:46:52.357Z,1.63
2022-09-13T15:49:22.588Z,1.20
2022-09-13T15:51:54.810Z,1.95
2022-09-13T15:54:24.938Z,1.58
2022-09-13T15:56:52.318Z,1.92
2022-09-13T15:59:21.169Z,1.98
2022-09-13T16:01:50.086Z,2.10
2022-09-13T16:04:17.827Z,9.50
2022-09-13T16:06:45.499Z,8.98
2022-09-13T16:09:18.994Z,4.57
2022-09-13T16:11:50.411Z,4.03
2022-09-13T16:14:19.095Z,3.08
2022-09-13T16:16:49.335Z,2.78
2022-09-13T16:19:18.283Z,2.40
2022-09-13T16:21:45.826Z,2.50
2022-09-13T16:24:14.384Z,3.13
2022-09-13T16:26:43.224Z,4.00
2022-09-13T16:29:12.805Z,2.58
2022-09-13T16:31:40.052Z,2.33
2022-09-13T16:34:07.443Z,2.47
2022-09-13T16:36:34.675Z,2.88
2022-09-13T16:39:02.087Z,3.03
2022-09-13T16:41:29.316Z,2.65
2022-09-13T16:43:57.263Z,3.08
2022-09-13T16:46:27.020Z,3.03
2022-09-13T16:48:55.047Z,2.70
2022-09-13T16:51:23.679Z,3.33
2022-09-13T16:53:52.630Z,2.80
2022-09-13T16:56:22.851Z,3.25
2022-09-13T16:58:51.099Z,3.10
2022-09-13T17:01:21.587Z,2.70
2022-09-13T17:03:54.446Z,3.05
2022-09-13T17:06:23.201Z,3.28
2022-09-13T17:08:52.906Z,3.10
2022-09-13T17:11:22.281Z,3.70
2022-09-13T17:13:50.436Z,4.50
2022-09-13T17:16:25.430Z,4.25
2022-09-13T17:18:54.957Z,3.30
2022-09-13T17:21:23.610Z,2.60
2022-09-13T17:23:51.002Z,2.67
2022-09-13T17:26:18.405Z,2.70
2022-09-13T17:28:45.981Z,2.90
2022-09-13T17:31:13.763Z,4.05
2022-09-13T17:33:42.839Z,2.55
2022-09-13T17:36:13.647Z,2.38
2022-09-13T17:38:41.767Z,2.63
2022-09-13T17:41:11.254Z,3.40
2022-09-13T17:43:41.954Z,3.55
2022-09-13T17:46:12.227Z,3.33
2022-09-13T17:48:40.052Z,3.38
2022-09-13T17:51:10.239Z,4.00
2022-09-13T17:53:41.896Z,4.35
2022-09-13T17:56:10.662Z,4.88
2022-09-13T17:58:37.799Z,6.20
2022-09-13T18:01:08.170Z,6.82
2022-09-13T18:03:36.596Z,6.07
2022-09-13T18:06:05.867Z,9.98
2022-09-13T18:08:35.448Z,6.45
2022-09-13T18:11:13.247Z,6.32
2022-09-13T18:13:42.407Z,5.60
2022-09-13T18:16:11.638Z,5.43
2022-09-13T18:18:43.705Z,7.07
2022-09-13T18:21:11.341Z,6.97
2022-09-13T18:23:40.491Z,6.38
2022-09-13T18:26:12.571Z,6.70
2022-09-13T18:28:43.433Z,6.28
2022-09-13T18:31:14.518Z,6.40
2022-09-13T18:33:42.362Z,6.60
2022-09-13T18:36:11.839Z,4.90
2022-09-13T18:38:41.253Z,4.50
2022-09-13T18:41:11.493Z,4.45
2022-09-13T18:43:40.480Z,5.97
2022-09-13T18:46:10.148Z,5.15
2022-09-13T18:51:08.796Z,4.70
2022-09-13T18:53:38.105Z,5.20
2022-09-13T18:56:07.818Z,5.15
2022-09-13T19:01:08.010Z,5.35
2022-09-13T19:03:38.810Z,5.65
2022-09-13T19:06:11.268Z,7.90
2022-09-13T19:08:40.164Z,6.57
2022-09-13T19:11:23.804Z,6.15
2022-09-13T19:13:58.695Z,6.53
2022-09-13T19:16:29.358Z,6.70
2022-09-13T19:18:57.220Z,7.80
2022-09-13T19:21:27.430Z,5.47
2022-09-13T19:24:06.446Z,4.95
2022-09-13T19:26:37.819Z,4.30
2022-09-13T19:29:08.307Z,4.97
2022-09-13T19:31:37.587Z,4.95
2022-09-13T19:34:06.550Z,4.80
2022-09-13T19:36:36.044Z,4.80
2022-09-13T19:41:31.912Z,3.53
2022-09-13T19:44:01.619Z,4.18
2022-09-13T19:49:01.059Z,3.80
2022-09-13T19:51:29.959Z,4.00
2022-09-13T19:53:58.739Z,3.63
2022-09-13T19:56:27.794Z,3.42
2022-09-13T19:58:55.360Z,3.33
2022-09-13T20:01:24.796Z,3.42
2022-09-13T20:06:25.518Z,2.90
2022-09-13T20:08:57.933Z,3.53
2022-09-13T20:11:29.257Z,3.35
2022-09-13T20:13:59.428Z,3.13
2022-09-13T20:16:29.106Z,2.97
2022-09-13T20:18:58.568Z,2.78
2022-09-13T20:21:27.337Z,2.40
2022-09-13T20:23:57.644Z,3.57
2022-09-13T20:26:26.800Z,2.78
2022-09-13T20:28:56.654Z,2.72
2022-09-13T20:31:26.348Z,2.72
2022-09-13T20:33:59.405Z,3.58
2022-09-13T20:36:29.550Z,3.20
2022-09-13T20:39:02.359Z,2.92
2022-09-13T20:41:31.705Z,3.05
2022-09-13T20:44:02.036Z,2.92
2022-09-13T20:46:31.607Z,2.92
2022-09-13T20:51:33.911Z,2.85
2022-09-13T20:54:03.248Z,3.63
2022-09-13T20:56:30.889Z,3.13
2022-09-13T20:59:00.550Z,3.40
2022-09-13T21:01:30.399Z,4.03
2022-09-13T21:06:28.540Z,4.55
2022-09-13T21:09:00.182Z,4.78
2022-09-13T21:11:30.440Z,4.07
2022-09-13T21:13:59.949Z,5.45
2022-09-13T21:16:29.042Z,4.35
2022-09-13T21:18:56.984Z,3.50
2022-09-13T21:21:27.831Z,3.13
2022-09-13T21:23:56.725Z,3.67
2022-09-13T21:26:26.942Z,3.53
2022-09-13T21:28:55.727Z,3.25
2022-09-13T21:31:26.292Z,3.30
2022-09-13T21:33:54.982Z,3.58
2022-09-13T21:36:22.665Z,3.70
2022-09-13T21:38:54.279Z,3.88
2022-09-13T21:41:22.885Z,3.58
2022-09-13T21:43:50.360Z,2.65
2022-09-13T21:46:19.827Z,3.22
2022-09-13T21:48:48.523Z,3.13
2022-09-13T21:51:20.201Z,2.53
2022-09-13T21:53:49.888Z,2.70
2022-09-13T21:58:49.237Z,2.42
2022-09-13T22:01:18.249Z,2.90
2022-09-13T22:03:47.041Z,3.08
2022-09-13T22:06:15.305Z,2.90
2022-09-13T22:08:45.575Z,3.05
2022-09-13T22:11:15.270Z,2.58
2022-09-13T22:16:19.738Z,2.53
2022-09-13T22:18:48.766Z,2.88
2022-09-13T22:21:18.620Z,2.72
2022-09-13T22:23:46.216Z,3.22
2022-09-13T22:26:16.054Z,2.83
2022-09-13T22:28:44.771Z,2.85
2022-09-13T22:31:13.782Z,2.23
2022-09-13T22:33:41.929Z,2.92
2022-09-13T22:36:11.596Z,2.45
2022-09-13T22:38:39.928Z,2.63
2022-09-13T22:41:10.404Z,2.45
2022-09-13T22:43:39.905Z,1.83
2022-09-13T22:46:11.709Z,3.33
2022-09-13T22:48:42.782Z,2.60
2022-09-13T22:51:11.793Z,2.47
2022-09-13T22:53:40.673Z,2.70
2022-09-13T22:56:10.533Z,2.87
2022-09-13T22:58:37.726Z,2.42
2022-09-13T23:01:07.362Z,2.50
2022-09-13T23:03:37.586Z,2.15
2022-09-13T23:06:06.163Z,2.15
2022-09-13T23:08:35.036Z,2.42
2022-09-13T23:11:10.169Z,2.63
2022-09-13T23:13:37.986Z,2.67
2022-09-13T23:16:06.862Z,2.28
2022-09-13T23:18:35.929Z,2.50
2022-09-13T23:21:03.372Z,2.10
2022-09-13T23:23:32.511Z,2.38
2022-09-13T23:26:10.495Z,2.50
2022-09-13T23:28:41.674Z,2.38
2022-09-13T23:31:11.691Z,2.20
2022-09-13T23:33:45.552Z,3.00
2022-09-13T23:38:59.088Z,2.58
2022-09-13T23:41:28.387Z,2.47
2022-09-13T23:43:57.645Z,2.47
2022-09-13T23:46:28.543Z,2.03
2022-09-13T23:48:58.749Z,2.03
2022-09-13T23:51:27.711Z,2.00
2022-09-13T23:53:57.411Z,2.33
2022-09-13T23:56:25.993Z,2.55
2022-09-13T23:58:54.568Z,2.15
